Pos Num Class Team                                 Time     Gap  To 1st   Speed
--- --- ----- ------------------------------ ---------- ------- ------- -------
 1.  22 ST    HART                             2:12.175                  89.064
 2. 111 ST    ICY/ Phoenix Racing              2:13.193   1.018   1.018  88.383
 3.  01 ST    Georgian Bay Motorsports         2:13.403   0.210   1.228  88.244
 4. 141 ST    ICY/ Phoenix Racing              2:13.839   0.436   1.664  87.956
 5.  76 ST    Kensai Racing                    2:14.070   0.231   1.895  87.805
 6.  69 ST    SpeedSource                      2:14.136   0.066   1.961  87.762
 7.  95 ST    Turner Motorsport                2:14.189   0.053   2.014  87.727
 8. 174 ST    LRT Racing                       2:14.257   0.068   2.082  87.683
 9.  53 ST    Predator Auto Sport              2:14.490   0.233   2.315  87.531
10.  68 ST    SpeedSource                      2:14.628   0.138   2.453  87.441
11.  74 ST    Kensai Racing                    2:14.660   0.032   2.485  87.420
12.  31 ST    i-MOTO Racing                    2:14.792   0.132   2.617  87.335
13.  75 ST    Kensai Racing                    2:14.893   0.101   2.718  87.269
14.  27 ST    Bill Fenton Motorsports          2:15.572   0.679   3.397  86.832
15.  32 ST    i-MOTO Racing                    2:15.632   0.060   3.457  86.794
16.  63 ST    Roar Racing                      2:15.634   0.002   3.459  86.792
17. 197 ST    RSR Motorsports                  2:16.067   0.433   3.892  86.516
18.  24 ST    V-Pack Motorsport                2:16.122   0.055   3.947  86.481
19. 138 ST    GS Motorsports                   2:16.343   0.221   4.168  86.341
20.  00 ST    Georgian Bay Motorsports         2:16.512   0.169   4.337  86.234
21. 133 ST    Kinetic Motorsports              2:17.080   0.568   4.905  85.877
22.  29 ST    Bill Fenton Motorsports          2:17.157   0.077   4.982  85.829
23.  64 ST    T Giovanis Motorsport            2:17.876   0.719   5.701  85.381
24.  48 ST    Team Cobalt California           2:18.244   0.368   6.069  85.154
25. 126 ST    Fountain Motorsports             2:18.906   0.662   6.731  84.748
26. 198 ST    RSR Motorsports                  2:19.379   0.473   7.204  84.460
27.  02 ST    Blackforest Motorsports          2:21.601   2.222   9.426  83.135
28.  62 ST    Roar Racing                      2:32.772  11.171  20.597  77.056
29.  13 ST    SDS Performance Racing            No Time
30.  56 ST    BSI Racing                        No Time
31.  58 ST    BSI Racing                        No Time
32.  70 ST    SpeedSource                       No Time
33.  85 ST    Classic BMW - Plano               No Time
34.  86 ST    Classic BMW - Plano               No Time
35. 125 ST    Fountain Motorsports              No Time
36. 127 ST    Fountain Motorsports              No Time